Aviation Digital Data Service (ADDS)

Output produced by TAFs form (0215 UTC 03 September 2014)
found at http://aviationweather.gov/adds/tafs/
 
KCNM 022330Z 0300/0324 16007KT P6SM FEW100 
     FM031800 15012G20KT P6SM SCT050